Aérodrome :
LOGIN :

S'inscrire | Disclaimer

   EN    FR    IT 

 










Légende :    VFR   VFR Marginal   IFR   IFR Intensif   IFR Très Intensif
Visi : 
Plafond : 
>= 8 km
>= 3000ft
5 à 8 km
1000 à 3000 ft
1500m à 5 km
500 à 1000 ft
800 à 1500m
200 à 500 ft
< 800m
< 200 ft
Symboles :   Orages  Brouillard  Fortes neiges  Fortes précipitations  Vent > 20 kt
SIGMETs :   Divers  Orages  Givrage  Turbulence  Onde Orograph.  Cendres Volcan.






- Altitude de l'aérodrome : 120 ft
- Code IATA : MME


EGNV - Durham Tees valley

DERNIER METAR :
  • 151750Z 21006KT 9999 FEW021 BKN042 11/09 Q1002

METARs EXPIRÉS :
  • 151720Z 20005KT 9999 FEW023 SCT030 BKN042 12/10 Q1002
  • 151650Z 19005KT 9999 FEW030 BKN043 12/10 Q1001
  • 151620Z 19006KT 9999 FEW025 BKN040 12/10 Q1001
  • 151550Z 17007KT 9999 FEW025 BKN042 12/09 Q1001
  • 151520Z 18006KT 9999 FEW025 SCT043 12/09 Q1001

TAF TAF EGNV
Valide du 15 à 18h jusqu'au 15 à 21h UTC


151653Z 1518/1521 21006KT 9999 SCT020
ATIS : +44 9012 018 111



MET'MAP, la Météo Aéronautique d'un coup d'oeil ! - Copyright ORBIFLY Décembre 2007 - Disclaimer

ORBIFLY MET'MAP TEAM :

Programmation & Développement : Alexandra Zaïnal
Conception & Développement : Baudouin d'Aumeries
Co-Programmation & Développement : Marc-Olivier Méhu
Soutien technique & logistique : Manuel Goepfert

Contact : metmap@orbifly.com




SOURCES & CREDITS :

   NOAA